createdAt,value
2022-10-26T00:01:28.761Z,12.96
2022-10-26T00:03:08.522Z,12.99
2022-10-26T00:04:48.282Z,12.99
2022-10-26T00:06:28.127Z,12.97
2022-10-26T00:08:07.808Z,12.96
2022-10-26T00:09:47.573Z,12.97
2022-10-26T00:11:27.325Z,12.96
2022-10-26T00:13:07.100Z,12.97
2022-10-26T00:14:46.861Z,12.96
2022-10-26T00:16:26.619Z,12.98
2022-10-26T00:19:46.164Z,12.98
2022-10-26T00:21:25.911Z,12.96
2022-10-26T00:23:05.674Z,12.96
2022-10-26T00:24:45.445Z,12.97
2022-10-26T00:26:25.214Z,12.98
2022-10-26T00:29:44.745Z,12.96
2022-10-26T00:31:24.585Z,12.95
2022-10-26T00:34:44.030Z,12.97
2022-10-26T00:36:23.788Z,12.95
2022-10-26T00:38:03.549Z,12.95
2022-10-26T00:39:43.319Z,12.95
2022-10-26T00:41:23.168Z,12.94
2022-10-26T00:43:02.839Z,12.98
2022-10-26T00:44:42.620Z,12.95
2022-10-26T00:46:22.383Z,12.96
2022-10-26T00:48:02.143Z,12.95
2022-10-26T00:49:41.909Z,12.97
2022-10-26T00:51:21.671Z,12.94
2022-10-26T00:53:01.436Z,12.96
2022-10-26T00:54:41.203Z,12.97
2022-10-26T00:56:20.966Z,12.94
2022-10-26T00:59:40.477Z,12.98
2022-10-26T01:01:20.256Z,12.94
2022-10-26T01:03:00.023Z,12.94
2022-10-26T01:04:39.778Z,12.94
2022-10-26T01:06:19.533Z,12.94
2022-10-26T01:07:59.297Z,12.95
2022-10-26T01:09:39.063Z,12.97
2022-10-26T01:11:18.878Z,12.94
2022-10-26T01:12:58.604Z,12.94
2022-10-26T01:14:38.363Z,12.97
2022-10-26T01:16:18.127Z,12.94
2022-10-26T01:19:37.648Z,12.93
2022-10-26T01:21:17.417Z,12.95
2022-10-26T01:22:57.169Z,12.93
2022-10-26T01:24:36.937Z,12.93
2022-10-26T01:26:16.744Z,12.94
2022-10-26T01:27:56.478Z,12.94
2022-10-26T01:29:36.236Z,12.94
2022-10-26T01:32:55.760Z,12.94
2022-10-26T01:34:35.534Z,12.93
2022-10-26T01:37:55.061Z,12.93
2022-10-26T01:39:34.811Z,12.93
2022-10-26T01:41:14.592Z,12.95
2022-10-26T01:42:54.347Z,12.93
2022-10-26T01:46:13.879Z,12.92
2022-10-26T01:47:53.634Z,12.93
2022-10-26T01:49:33.415Z,12.93
2022-10-26T01:51:13.170Z,12.93
2022-10-26T01:52:52.929Z,12.94
2022-10-26T01:54:32.709Z,12.93
2022-10-26T01:56:12.459Z,12.92
2022-10-26T01:57:52.224Z,12.93
2022-10-26T01:59:31.977Z,12.93
2022-10-26T02:01:11.748Z,12.93
2022-10-26T02:02:51.514Z,12.95
2022-10-26T02:04:31.270Z,12.92
2022-10-26T02:06:11.037Z,12.92
2022-10-26T02:09:30.571Z,12.92
2022-10-26T02:11:10.326Z,12.96
2022-10-26T02:12:50.090Z,12.94
2022-10-26T02:14:29.868Z,12.92
2022-10-26T02:16:09.623Z,12.92
2022-10-26T02:19:29.153Z,12.94
2022-10-26T02:22:48.695Z,12.91
2022-10-26T02:24:28.441Z,12.92
2022-10-26T02:26:08.197Z,12.95
2022-10-26T02:29:27.733Z,12.91
2022-10-26T02:31:07.493Z,12.92
2022-10-26T02:32:47.335Z,12.91
2022-10-26T02:34:27.032Z,12.91
2022-10-26T02:36:06.792Z,12.92
2022-10-26T02:39:26.317Z,12.9
2022-10-26T02:41:06.091Z,12.9
2022-10-26T02:42:45.878Z,12.91
2022-10-26T02:44:25.639Z,12.9
2022-10-26T02:46:05.384Z,12.9
2022-10-26T02:49:24.900Z,12.91
2022-10-26T02:51:04.668Z,12.9
2022-10-26T02:52:44.421Z,12.9
2022-10-26T02:54:24.196Z,12.9
2022-10-26T02:56:03.961Z,12.89
2022-10-26T02:59:23.489Z,12.89
2022-10-26T03:01:03.261Z,12.9
2022-10-26T03:02:43.043Z,12.9
2022-10-26T03:04:22.781Z,12.89
2022-10-26T03:06:02.533Z,12.91
2022-10-26T03:09:22.072Z,12.89
2022-10-26T03:11:01.854Z,12.89
2022-10-26T03:12:41.583Z,12.93
2022-10-26T03:14:21.349Z,12.89
2022-10-26T03:16:01.114Z,12.88
2022-10-26T03:19:20.656Z,12.88
2022-10-26T03:21:00.409Z,12.87
2022-10-26T03:22:40.251Z,12.88
2022-10-26T03:24:19.951Z,12.91
2022-10-26T03:25:59.702Z,12.88
2022-10-26T03:29:19.220Z,12.88
2022-10-26T03:32:38.747Z,12.88
2022-10-26T03:34:18.531Z,12.87
2022-10-26T03:35:58.296Z,12.89
2022-10-26T03:39:17.818Z,12.87
2022-10-26T03:40:57.630Z,12.89
2022-10-26T03:42:37.351Z,12.89
2022-10-26T03:44:17.111Z,12.9
2022-10-26T03:45:56.865Z,12.87
2022-10-26T03:49:16.400Z,12.87
2022-10-26T03:52:35.929Z,12.88
2022-10-26T03:55:55.448Z,12.86
2022-10-26T03:59:14.989Z,12.88
2022-10-26T04:00:54.737Z,12.87
2022-10-26T04:02:34.499Z,12.87
2022-10-26T04:04:14.273Z,12.85
2022-10-26T04:05:54.061Z,12.86
2022-10-26T04:09:13.551Z,12.85
2022-10-26T04:10:53.327Z,12.86
2022-10-26T04:12:33.114Z,12.84
2022-10-26T04:14:12.843Z,12.85
2022-10-26T04:15:52.630Z,12.84
2022-10-26T04:19:12.171Z,12.85
2022-10-26T04:20:51.943Z,12.85
2022-10-26T04:22:31.663Z,12.86
2022-10-26T04:25:51.258Z,12.84
2022-10-26T04:27:30.950Z,12.83
2022-10-26T04:29:10.726Z,12.83
2022-10-26T04:30:50.522Z,12.85
2022-10-26T04:32:30.270Z,12.83
2022-10-26T04:34:10.028Z,12.83
2022-10-26T04:35:49.776Z,12.83
2022-10-26T04:39:09.326Z,12.82
2022-10-26T04:40:49.072Z,12.82
2022-10-26T04:42:28.842Z,12.82
2022-10-26T04:45:48.466Z,12.83
2022-10-26T04:47:28.129Z,12.81
2022-10-26T04:49:07.905Z,12.81
2022-10-26T04:50:47.673Z,12.81
2022-10-26T04:52:27.439Z,12.8
2022-10-26T04:54:07.190Z,12.81
2022-10-26T04:55:46.946Z,12.83
2022-10-26T04:59:06.476Z,12.8
2022-10-26T05:02:26.005Z,12.79
2022-10-26T05:04:05.773Z,12.83
2022-10-26T05:05:45.548Z,12.79
2022-10-26T05:09:05.048Z,12.79
2022-10-26T05:10:44.835Z,12.78
2022-10-26T05:12:24.606Z,12.78
2022-10-26T05:14:04.342Z,12.78
2022-10-26T05:15:44.109Z,12.78
2022-10-26T05:19:03.643Z,12.78
2022-10-26T05:20:43.413Z,12.77
2022-10-26T05:22:23.173Z,12.77
2022-10-26T05:24:02.921Z,12.76
2022-10-26T05:25:42.704Z,12.76
2022-10-26T05:27:22.487Z,12.79
2022-10-26T05:29:02.219Z,12.76
2022-10-26T05:30:41.974Z,12.76
2022-10-26T05:32:21.765Z,12.75
2022-10-26T05:34:01.567Z,12.76
2022-10-26T05:35:41.301Z,12.77
2022-10-26T05:39:00.834Z,12.75
2022-10-26T05:40:40.574Z,12.77
2022-10-26T05:42:20.333Z,12.75
2022-10-26T05:44:00.103Z,12.75
2022-10-26T05:45:39.862Z,12.75
2022-10-26T05:47:19.628Z,12.76
2022-10-26T05:48:59.385Z,12.78
2022-10-26T05:50:39.149Z,12.78
2022-10-26T05:52:18.935Z,12.78
2022-10-26T05:53:58.683Z,12.76
2022-10-26T05:55:38.434Z,12.77
2022-10-26T05:58:57.963Z,12.78
2022-10-26T06:00:37.751Z,12.79
2022-10-26T06:02:17.496Z,12.81
2022-10-26T06:03:57.279Z,12.79
2022-10-26T06:05:37.090Z,12.77
2022-10-26T06:07:16.798Z,12.8
2022-10-26T06:08:56.544Z,12.78
2022-10-26T06:10:36.314Z,12.82
2022-10-26T06:12:16.084Z,12.82
2022-10-26T06:13:55.850Z,12.82
2022-10-26T06:15:35.629Z,12.84
2022-10-26T06:18:55.133Z,12.87
2022-10-26T06:20:34.908Z,12.89
2022-10-26T06:22:14.704Z,12.91
2022-10-26T06:23:54.439Z,12.94
2022-10-26T06:25:34.191Z,12.95
2022-10-26T06:27:13.979Z,13
2022-10-26T06:28:53.722Z,13.05
2022-10-26T06:32:13.250Z,13.14
2022-10-26T06:33:53.006Z,13.2
2022-10-26T06:35:32.780Z,13.26
2022-10-26T06:37:12.578Z,13.33
2022-10-26T06:38:52.299Z,13.39
2022-10-26T06:42:11.851Z,13.48
2022-10-26T06:43:51.588Z,13.51
2022-10-26T06:45:31.360Z,13.58
2022-10-26T06:48:50.882Z,13.65
2022-10-26T06:50:30.654Z,13.67
2022-10-26T06:52:10.435Z,13.71
2022-10-26T06:53:50.180Z,13.77
2022-10-26T06:55:29.933Z,13.81
2022-10-26T06:58:49.485Z,13.94
2022-10-26T07:00:29.237Z,13.99
2022-10-26T07:02:09.038Z,13.97
2022-10-26T07:03:48.812Z,13.97
2022-10-26T07:05:28.589Z,14.08
2022-10-26T07:07:08.302Z,14.01
2022-10-26T07:08:48.070Z,14.04
2022-10-26T07:12:07.602Z,14.06
2022-10-26T07:13:47.413Z,14.09
2022-10-26T07:15:27.104Z,14.14
2022-10-26T07:18:46.656Z,14.17
2022-10-26T07:22:06.155Z,14.22
2022-10-26T07:23:45.929Z,14.26
2022-10-26T07:25:25.698Z,14.28
2022-10-26T07:28:45.255Z,14.39
2022-10-26T07:32:04.750Z,14.59
2022-10-26T07:33:44.504Z,14.68
2022-10-26T07:35:24.275Z,14.13
2022-10-26T07:38:43.792Z,14.81
2022-10-26T07:40:23.579Z,14.73
2022-10-26T07:42:03.347Z,14.76
2022-10-26T07:43:43.104Z,14.75
2022-10-26T07:45:22.863Z,14.73
2022-10-26T07:48:42.425Z,14.69
2022-10-26T07:52:01.910Z,14.75
2022-10-26T07:55:21.447Z,14.73
2022-10-26T07:58:40.975Z,14.76
2022-10-26T08:00:20.813Z,14.69
2022-10-26T08:02:00.503Z,14.71
2022-10-26T08:03:40.303Z,14.67
2022-10-26T08:05:20.058Z,14.68
2022-10-26T08:08:39.544Z,14.69
2022-10-26T08:10:19.315Z,14.71
2022-10-26T08:11:59.077Z,14.71
2022-10-26T08:13:38.854Z,14.7
2022-10-26T08:15:18.601Z,14.73
2022-10-26T08:18:38.131Z,14.75
2022-10-26T08:20:17.900Z,14.72
2022-10-26T08:21:57.663Z,14.66
2022-10-26T08:23:37.433Z,14.71
2022-10-26T08:25:17.196Z,14.75
2022-10-26T08:31:56.337Z,14.7
2022-10-26T08:33:36.019Z,14.73
2022-10-26T08:35:15.776Z,14.62
2022-10-26T08:38:35.338Z,14.71
2022-10-26T08:40:15.065Z,14.67
2022-10-26T08:41:54.838Z,14.7
2022-10-26T08:43:34.595Z,14.65
2022-10-26T08:45:14.481Z,14.7
2022-10-26T08:46:54.178Z,14.68
2022-10-26T08:48:33.893Z,14.66
2022-10-26T08:50:13.680Z,14.63
2022-10-26T08:51:53.440Z,14.68
2022-10-26T08:53:33.186Z,14.61
2022-10-26T08:55:12.954Z,14.62
2022-10-26T08:56:52.704Z,14.67
2022-10-26T08:58:32.476Z,14.71
2022-10-26T09:00:12.257Z,14.65
2022-10-26T09:03:31.751Z,14.66
2022-10-26T09:05:11.526Z,14.62
2022-10-26T09:06:51.280Z,14.68
2022-10-26T09:08:31.055Z,14.7
2022-10-26T09:10:10.824Z,14.68
2022-10-26T09:11:50.574Z,14.71
2022-10-26T09:15:10.149Z,14.76
2022-10-26T09:16:49.872Z,14.61
2022-10-26T09:18:29.648Z,14.66
2022-10-26T09:20:09.396Z,14.7
2022-10-26T09:21:49.167Z,14.6
2022-10-26T09:23:28.946Z,14.61
2022-10-26T09:25:08.701Z,14.7
2022-10-26T09:28:28.227Z,14.74
2022-10-26T09:30:07.976Z,14.59
2022-10-26T09:31:47.741Z,14.73
2022-10-26T09:33:27.529Z,14.03
2022-10-26T09:35:07.319Z,14
2022-10-26T09:38:26.795Z,14.1
2022-10-26T09:40:06.643Z,14.07
2022-10-26T09:41:46.399Z,14.07
2022-10-26T09:45:05.848Z,14.08
2022-10-26T09:46:45.645Z,14.08
2022-10-26T09:48:25.389Z,14.08
2022-10-26T09:50:05.141Z,14.08
2022-10-26T09:51:44.918Z,14.07
2022-10-26T09:53:24.729Z,14.06
2022-10-26T09:55:04.458Z,14.06
2022-10-26T09:58:23.965Z,14.07
2022-10-26T10:00:03.742Z,14.07
2022-10-26T10:01:43.529Z,14.08
2022-10-26T10:03:23.256Z,14.07
2022-10-26T10:05:03.027Z,14.08
2022-10-26T10:08:22.540Z,14.05
2022-10-26T10:10:02.322Z,14.06
2022-10-26T10:11:42.088Z,14.06
2022-10-26T10:13:21.839Z,14.07
2022-10-26T10:15:01.599Z,14.07
2022-10-26T10:16:41.380Z,14.07
2022-10-26T10:18:21.135Z,14.07
2022-10-26T10:20:00.896Z,14.08
2022-10-26T10:21:40.664Z,14.08
2022-10-26T10:23:20.424Z,14.07
2022-10-26T10:25:00.189Z,14.07
2022-10-26T10:28:19.718Z,14.05
2022-10-26T10:29:59.497Z,14.03
2022-10-26T10:31:39.257Z,14.04
2022-10-26T10:33:19.023Z,14.03
2022-10-26T10:34:58.768Z,14.03
2022-10-26T10:38:18.291Z,14.04
2022-10-26T10:39:58.071Z,14.05
2022-10-26T10:41:37.828Z,14.06
2022-10-26T10:43:17.628Z,14.05
2022-10-26T10:44:57.385Z,14.03
2022-10-26T10:48:16.879Z,13.99
2022-10-26T10:49:56.643Z,14.01
2022-10-26T10:51:36.406Z,13.98
2022-10-26T10:53:16.188Z,13.99
2022-10-26T10:54:55.945Z,14
2022-10-26T10:56:35.701Z,14
2022-10-26T10:58:15.484Z,13.98
2022-10-26T10:59:55.235Z,14.03
2022-10-26T11:01:35.000Z,14.02
2022-10-26T11:03:14.759Z,14.03
2022-10-26T11:04:54.575Z,14.03
2022-10-26T11:06:34.295Z,14
2022-10-26T11:08:14.081Z,13.98
2022-10-26T11:09:53.833Z,13.98
2022-10-26T11:11:33.586Z,13.96
2022-10-26T11:13:13.353Z,13.95
2022-10-26T11:14:53.146Z,13.96
2022-10-26T11:18:12.633Z,13.94
2022-10-26T11:19:52.414Z,13.99
2022-10-26T11:21:32.169Z,14
2022-10-26T11:24:51.706Z,14
2022-10-26T11:28:11.219Z,14.02
2022-10-26T11:29:50.975Z,14
2022-10-26T11:31:30.750Z,14.01
2022-10-26T11:33:10.569Z,14.02
2022-10-26T11:34:50.287Z,14.03
2022-10-26T11:38:09.829Z,13.97
2022-10-26T11:41:29.322Z,14.01
2022-10-26T11:43:09.116Z,14
2022-10-26T11:44:48.900Z,13.99
2022-10-26T11:46:28.636Z,13.97
2022-10-26T11:48:08.382Z,13.96
2022-10-26T11:49:48.212Z,13.96
2022-10-26T11:51:27.925Z,13.94
2022-10-26T11:53:07.712Z,13.94
2022-10-26T11:54:47.445Z,13.96
2022-10-26T11:58:06.977Z,13.96
2022-10-26T11:59:46.774Z,13.97
2022-10-26T12:01:26.502Z,13.97
2022-10-26T12:03:06.281Z,13.96
2022-10-26T12:04:46.077Z,13.97
2022-10-26T12:08:05.544Z,13.98
2022-10-26T12:09:45.326Z,13.99
2022-10-26T12:11:25.073Z,13.99
2022-10-26T12:13:04.836Z,13.94
2022-10-26T12:14:44.628Z,13.93
2022-10-26T12:18:04.149Z,13.94
2022-10-26T12:21:23.674Z,13.95
2022-10-26T12:23:03.440Z,13.99
2022-10-26T12:24:43.187Z,13.95
2022-10-26T12:26:22.967Z,13.94
2022-10-26T12:28:02.728Z,13.95
2022-10-26T12:29:42.495Z,13.95
2022-10-26T12:31:22.339Z,13.97
2022-10-26T12:33:02.062Z,13.97
2022-10-26T12:34:41.796Z,13.95
2022-10-26T12:36:21.539Z,13.92
2022-10-26T12:38:01.344Z,13.93
2022-10-26T12:39:41.071Z,13.93
2022-10-26T12:41:20.836Z,13.95
2022-10-26T12:43:00.612Z,13.95
2022-10-26T12:44:40.357Z,13.96
2022-10-26T12:46:20.135Z,13.96
2022-10-26T12:47:59.905Z,13.95
2022-10-26T12:49:39.660Z,13.9
2022-10-26T12:51:19.426Z,13.95
2022-10-26T12:52:59.173Z,13.96
2022-10-26T12:54:38.952Z,13.9
2022-10-26T12:56:18.714Z,13.95
2022-10-26T12:57:58.469Z,13.94
2022-10-26T12:59:38.245Z,13.93
2022-10-26T13:01:17.997Z,13.94
2022-10-26T13:02:57.777Z,13.87
2022-10-26T13:04:37.546Z,13.95
2022-10-26T13:07:57.072Z,13.93
2022-10-26T13:09:36.833Z,13.95
2022-10-26T13:11:16.613Z,13.91
2022-10-26T13:12:56.363Z,13.92
2022-10-26T13:14:36.113Z,13.93
2022-10-26T13:17:55.650Z,13.95
2022-10-26T13:19:35.415Z,13.92
2022-10-26T13:21:15.166Z,13.92
2022-10-26T13:22:54.947Z,13.99
2022-10-26T13:24:34.713Z,13.98
2022-10-26T13:27:54.222Z,13.93
2022-10-26T13:29:34.001Z,13.96
2022-10-26T13:31:13.757Z,13.96
2022-10-26T13:32:53.565Z,14.02
2022-10-26T13:34:33.310Z,13.92
2022-10-26T13:37:52.808Z,13.92
2022-10-26T13:39:32.565Z,13.91
2022-10-26T13:41:12.348Z,14.05
2022-10-26T13:42:52.146Z,13.94
2022-10-26T13:44:31.865Z,13.96
2022-10-26T13:47:51.387Z,14.01
2022-10-26T13:49:31.163Z,13.96
2022-10-26T13:51:10.918Z,13.91
2022-10-26T13:52:50.693Z,14
2022-10-26T13:57:50.067Z,14.02
2022-10-26T13:59:29.810Z,13.99
2022-10-26T14:01:09.558Z,13.99
2022-10-26T14:02:49.287Z,13.89
2022-10-26T14:04:29.037Z,13.92
2022-10-26T14:07:48.614Z,13.95
2022-10-26T14:09:28.346Z,13.91
2022-10-26T14:11:08.097Z,14.03
2022-10-26T14:12:47.860Z,13.93
2022-10-26T14:14:27.626Z,14.01
2022-10-26T14:16:07.397Z,13.9
2022-10-26T14:17:47.157Z,13.96
2022-10-26T14:19:26.908Z,13.94
2022-10-26T14:21:06.673Z,14
2022-10-26T14:22:46.510Z,13.92
2022-10-26T14:24:26.203Z,13.93
2022-10-26T14:27:45.737Z,14
2022-10-26T14:29:25.498Z,13.93
2022-10-26T14:31:05.262Z,14.04
2022-10-26T14:32:45.031Z,13.93
2022-10-26T14:34:24.900Z,13.92
2022-10-26T14:37:44.331Z,13.97
2022-10-26T14:39:24.107Z,13.89
2022-10-26T14:41:03.840Z,14
2022-10-26T14:42:43.607Z,13.9
2022-10-26T14:44:23.375Z,13.94
2022-10-26T14:47:42.909Z,13.94
2022-10-26T14:49:22.667Z,13.99
2022-10-26T14:51:02.425Z,13.9
2022-10-26T14:52:42.198Z,13.92
2022-10-26T14:54:21.946Z,13.98
2022-10-26T14:57:41.485Z,13.96
2022-10-26T14:59:21.244Z,14.05
2022-10-26T15:01:01.013Z,13.9
2022-10-26T15:04:20.536Z,13.96
2022-10-26T15:06:00.314Z,14.01
2022-10-26T15:07:40.079Z,13.92
2022-10-26T15:09:19.842Z,13.98
2022-10-26T15:10:59.605Z,13.95
2022-10-26T15:14:19.134Z,13.9
2022-10-26T15:17:38.662Z,13.96
2022-10-26T15:19:18.437Z,14.06
2022-10-26T15:20:58.208Z,13.96
2022-10-26T15:22:37.973Z,13.89
2022-10-26T15:24:17.799Z,13.75
2022-10-26T15:25:57.473Z,13.53
2022-10-26T15:27:37.290Z,13.47
2022-10-26T15:29:16.993Z,13.41
2022-10-26T15:30:56.784Z,13.38
2022-10-26T15:32:36.592Z,13.3
2022-10-26T15:34:16.284Z,13.3
2022-10-26T15:37:35.837Z,13.27
2022-10-26T15:40:55.390Z,13.24
2022-10-26T15:42:35.198Z,13.24
2022-10-26T15:44:14.897Z,13.22
2022-10-26T15:45:54.653Z,13.2
2022-10-26T15:47:34.412Z,13.18
2022-10-26T15:49:14.179Z,13.19
2022-10-26T15:50:53.948Z,13.19
2022-10-26T15:52:33.688Z,13.18
2022-10-26T15:54:13.489Z,13.18
2022-10-26T15:57:32.988Z,13.16
2022-10-26T15:59:12.749Z,13.16
2022-10-26T16:00:52.507Z,13.14
2022-10-26T16:02:32.267Z,13.15
2022-10-26T16:04:12.036Z,13.15
2022-10-26T16:05:51.822Z,13.15
2022-10-26T16:07:31.595Z,13.12
2022-10-26T16:09:11.363Z,13.11
2022-10-26T16:10:51.107Z,13.14
2022-10-26T16:12:30.858Z,13.11
2022-10-26T16:14:10.658Z,13.11
2022-10-26T16:15:50.396Z,13.11
2022-10-26T16:17:30.151Z,13.12
2022-10-26T16:19:09.910Z,13.11
2022-10-26T16:20:49.704Z,13.13
2022-10-26T16:22:29.455Z,13.12
2022-10-26T16:24:09.212Z,13.1
2022-10-26T16:27:28.742Z,13.12
2022-10-26T16:29:08.491Z,13.07
2022-10-26T16:30:48.278Z,13.12
2022-10-26T16:32:28.041Z,13.12
2022-10-26T16:34:07.807Z,13.12
2022-10-26T16:35:47.566Z,13.11
2022-10-26T16:37:27.313Z,13.11
2022-10-26T16:39:07.105Z,13.11
2022-10-26T16:40:46.902Z,13.11
2022-10-26T16:42:26.610Z,13.09
2022-10-26T16:44:06.387Z,13.09
2022-10-26T16:47:25.906Z,13.09
2022-10-26T16:49:05.675Z,13.1
2022-10-26T16:50:45.444Z,13.08
2022-10-26T16:52:25.197Z,13.11
2022-10-26T16:54:04.989Z,13.08
2022-10-26T16:57:24.483Z,13.09
2022-10-26T17:00:44.018Z,13.1
2022-10-26T17:04:03.557Z,13.09
2022-10-26T17:07:23.076Z,13.09
2022-10-26T17:09:02.828Z,13.08
2022-10-26T17:10:42.595Z,13.08
2022-10-26T17:12:22.365Z,13.1
2022-10-26T17:14:02.123Z,13.09
2022-10-26T17:17:21.739Z,13.09
2022-10-26T17:19:01.442Z,13.09
2022-10-26T17:20:41.190Z,13.09
2022-10-26T17:22:21.087Z,13.09
2022-10-26T17:24:00.800Z,13.05
2022-10-26T17:25:40.637Z,13.09
2022-10-26T17:27:20.406Z,13.07
2022-10-26T17:29:00.113Z,13.09
2022-10-26T17:30:39.774Z,13.07
2022-10-26T17:32:19.681Z,13.07
2022-10-26T17:33:59.415Z,13.06
2022-10-26T17:37:18.963Z,13.07
2022-10-26T17:38:58.625Z,13.04
2022-10-26T17:40:38.475Z,13.07
2022-10-26T17:42:18.130Z,13.09
2022-10-26T17:43:57.943Z,13.08
2022-10-26T17:45:37.775Z,13.08
2022-10-26T17:47:17.483Z,13.07
2022-10-26T17:48:57.259Z,13.08
2022-10-26T17:50:37.078Z,13.08
2022-10-26T17:52:16.743Z,13.08
2022-10-26T17:53:56.593Z,13.06
2022-10-26T17:57:16.116Z,13.08
2022-10-26T17:58:55.827Z,13.08
2022-10-26T18:00:35.628Z,13.06
2022-10-26T18:02:15.351Z,13.08
2022-10-26T18:03:55.214Z,13.08
2022-10-26T18:07:14.726Z,13.06
2022-10-26T18:08:54.370Z,13.07
2022-10-26T18:10:34.262Z,13.08
2022-10-26T18:12:14.022Z,13.06
2022-10-26T18:13:53.617Z,13.07
2022-10-26T18:17:13.275Z,13.06
2022-10-26T18:18:53.078Z,13.06
2022-10-26T18:20:32.824Z,13.07
2022-10-26T18:22:12.451Z,13.07
2022-10-26T18:23:52.219Z,13.07
2022-10-26T18:25:31.965Z,13.05
2022-10-26T18:27:11.828Z,13.07
2022-10-26T18:28:51.653Z,13.07
2022-10-26T18:30:31.328Z,13.07
2022-10-26T18:32:11.041Z,13.07
2022-10-26T18:33:50.960Z,13.08
2022-10-26T18:37:10.409Z,13.06
2022-10-26T18:38:50.239Z,13.07
2022-10-26T18:40:29.989Z,13.06
2022-10-26T18:42:09.761Z,13.07
2022-10-26T18:43:49.496Z,13.07
2022-10-26T18:47:08.900Z,13.05
2022-10-26T18:48:48.836Z,13.06
2022-10-26T18:50:28.576Z,13.05
2022-10-26T18:52:08.257Z,13.05
2022-10-26T18:53:48.032Z,13.04
2022-10-26T18:57:07.481Z,13.07
2022-10-26T18:58:47.269Z,13.06
2022-10-26T19:00:27.029Z,13.06
2022-10-26T19:02:06.782Z,13.06
2022-10-26T19:03:46.546Z,13.04
2022-10-26T19:07:06.062Z,13.06
2022-10-26T19:08:45.987Z,13.06
2022-10-26T19:10:25.686Z,13.03
2022-10-26T19:12:05.475Z,13.04
2022-10-26T19:13:45.128Z,13.04
2022-10-26T19:15:25.005Z,13.06
2022-10-26T19:17:04.779Z,13.06
2022-10-26T19:18:44.413Z,13.06
2022-10-26T19:20:24.178Z,13.06
2022-10-26T19:22:03.951Z,13.03
2022-10-26T19:23:43.714Z,13.06
2022-10-26T19:27:03.247Z,13.04
2022-10-26T19:28:43.003Z,13.06
2022-10-26T19:30:22.762Z,13.05
2022-10-26T19:32:02.527Z,13.04
2022-10-26T19:33:42.331Z,13.06
2022-10-26T19:37:01.830Z,13.06
2022-10-26T19:38:41.597Z,13.06
2022-10-26T19:40:21.349Z,13.06
2022-10-26T19:43:40.888Z,13.03
2022-10-26T19:47:00.409Z,13.04
2022-10-26T19:48:40.175Z,13.04
2022-10-26T19:50:19.944Z,13.05
2022-10-26T19:51:59.699Z,13.04
2022-10-26T19:53:39.453Z,13.06
2022-10-26T19:58:38.754Z,13.05
2022-10-26T20:00:18.527Z,13.05
2022-10-26T20:01:58.277Z,13.05
2022-10-26T20:03:38.044Z,13.03
2022-10-26T20:05:17.819Z,13.05
2022-10-26T20:06:57.576Z,13.05
2022-10-26T20:08:37.337Z,13.05
2022-10-26T20:10:17.111Z,13.05
2022-10-26T20:11:56.868Z,13.05
2022-10-26T20:13:36.641Z,13.05
2022-10-26T20:16:56.163Z,13.03
2022-10-26T20:18:35.914Z,13.04
2022-10-26T20:20:15.686Z,13.05
2022-10-26T20:23:35.205Z,13.05
2022-10-26T20:26:54.749Z,13.04
2022-10-26T20:28:34.499Z,13.04
2022-10-26T20:30:14.269Z,13.04
2022-10-26T20:31:54.026Z,13.04
2022-10-26T20:33:33.789Z,13.05
2022-10-26T20:36:53.318Z,13.04
2022-10-26T20:38:33.087Z,13.04
2022-10-26T20:40:12.861Z,13.04
2022-10-26T20:41:52.618Z,13.02
2022-10-26T20:43:32.376Z,13.03
2022-10-26T20:46:51.915Z,13.04
2022-10-26T20:48:31.680Z,13.04
2022-10-26T20:50:11.440Z,13.04
2022-10-26T20:51:51.192Z,13.04
2022-10-26T20:53:30.968Z,13.03
2022-10-26T20:55:10.731Z,13.01
2022-10-26T20:56:50.501Z,13.02
2022-10-26T21:00:10.037Z,13.01
2022-10-26T21:01:49.783Z,13.04
2022-10-26T21:03:29.548Z,13.04
2022-10-26T21:06:49.079Z,13.03
2022-10-26T21:08:28.856Z,13.04
2022-10-26T21:10:08.598Z,13.04
2022-10-26T21:11:48.358Z,13.04
2022-10-26T21:13:28.145Z,13.03
2022-10-26T21:16:47.661Z,13.03
2022-10-26T21:18:27.438Z,13.03
2022-10-26T21:20:07.195Z,13.04
2022-10-26T21:21:46.949Z,13.03
2022-10-26T21:23:26.708Z,13.01
2022-10-26T21:25:06.488Z,13.03
2022-10-26T21:26:46.241Z,13.01
2022-10-26T21:28:25.993Z,13.01
2022-10-26T21:30:05.767Z,13.04
2022-10-26T21:31:45.546Z,13.03
2022-10-26T21:33:25.302Z,13.03
2022-10-26T21:36:44.826Z,13.03
2022-10-26T21:38:24.593Z,13.01
2022-10-26T21:40:04.365Z,13.03
2022-10-26T21:41:44.117Z,13.03
2022-10-26T21:43:23.882Z,13.03
2022-10-26T21:46:43.401Z,13.03
2022-10-26T21:48:23.175Z,13.01
2022-10-26T21:50:02.950Z,13.03
2022-10-26T21:51:42.702Z,13.02
2022-10-26T21:53:22.470Z,13.03
2022-10-26T21:55:02.226Z,13.02
2022-10-26T21:56:41.989Z,13.02
2022-10-26T21:58:21.758Z,13.03
2022-10-26T22:00:01.528Z,13
2022-10-26T22:01:41.289Z,13.03
2022-10-26T22:03:21.043Z,13
2022-10-26T22:06:40.566Z,13.03
2022-10-26T22:08:20.344Z,13
2022-10-26T22:10:00.110Z,13.02
2022-10-26T22:11:39.870Z,13.02
2022-10-26T22:13:19.628Z,13.02
2022-10-26T22:16:39.169Z,13.02
2022-10-26T22:18:18.930Z,13
2022-10-26T22:19:58.687Z,13.02
2022-10-26T22:21:38.459Z,13.02
2022-10-26T22:23:18.214Z,13
2022-10-26T22:24:57.981Z,13
2022-10-26T22:26:37.734Z,13.01
2022-10-26T22:28:17.531Z,13.02
2022-10-26T22:29:57.259Z,13.02
2022-10-26T22:31:37.025Z,13.02
2022-10-26T22:33:16.912Z,13
2022-10-26T22:36:36.315Z,13.02
2022-10-26T22:38:16.095Z,13.01
2022-10-26T22:39:55.873Z,13
2022-10-26T22:41:35.612Z,13.02
2022-10-26T22:43:15.373Z,13.01
2022-10-26T22:46:34.908Z,13.01
2022-10-26T22:48:14.667Z,12.99
2022-10-26T22:49:54.442Z,13.01
2022-10-26T22:51:34.208Z,13.01
2022-10-26T22:53:13.953Z,13.02
2022-10-26T22:54:53.726Z,13.01
2022-10-26T22:56:33.495Z,13.02
2022-10-26T22:59:53.023Z,12.99
2022-10-26T23:01:32.773Z,12.99
2022-10-26T23:03:12.550Z,12.99
2022-10-26T23:06:32.090Z,12.99
2022-10-26T23:08:11.837Z,13.01
2022-10-26T23:09:51.606Z,13.01
2022-10-26T23:11:31.365Z,12.99
2022-10-26T23:13:11.138Z,12.98
2022-10-26T23:16:30.658Z,13
2022-10-26T23:18:10.417Z,13
2022-10-26T23:19:50.189Z,12.98
2022-10-26T23:21:29.957Z,12.98
2022-10-26T23:23:09.713Z,12.99
2022-10-26T23:26:29.246Z,12.98
2022-10-26T23:28:09.016Z,13
2022-10-26T23:29:48.775Z,12.98
2022-10-26T23:31:28.530Z,13.01
2022-10-26T23:34:48.071Z,13.01
2022-10-26T23:36:27.832Z,13.01
2022-10-26T23:38:07.631Z,13
2022-10-26T23:39:47.353Z,12.98
2022-10-26T23:41:27.116Z,12.98
2022-10-26T23:43:06.886Z,12.98
2022-10-26T23:46:26.397Z,13
2022-10-26T23:49:45.945Z,12.99
2022-10-26T23:51:25.695Z,12.98
2022-10-26T23:53:05.469Z,13
2022-10-26T23:56:24.998Z,12.98
2022-10-26T23:58:04.760Z,12.99
2022-10-26T23:59:44.522Z,12.99
